Time;durP1;ratioP1;P1;durP2;ratioP2;P2;SDS_P1;SDS_P2;PMS_P1;PMS_P2;Temp;Humidity;BMP_temperature;BMP_pressure;BME280_temperature;BME280_humidity;BME280_pressure;Samples;Min_cycle;Max_cycle;Signal;HPM_P1;HPM_P2
2024/04/07 00:02:03;;;;;;;7.05;2.42;;;16.40;1.00;;;;;;7374441;19;20041;-59
2024/04/07 00:04:29;;;;;;;6.72;2.55;;;16.40;7.30;;;;;;7381527;19;20550;-63
2024/04/07 00:06:55;;;;;;;7.10;2.38;;;16.30;35.50;;;;;;7374960;19;20026;-64
2024/04/07 00:09:21;;;;;;;6.63;2.58;;;16.20;52.10;;;;;;7377370;19;20023;-64
2024/04/07 00:11:48;;;;;;;6.50;2.47;;;16.20;99.90;;;;;;7378797;19;20546;-63
2024/04/07 00:14:16;;;;;;;8.43;2.70;;;16.10;99.90;;;;;;7369271;19;20030;-60
2024/04/07 00:16:42;;;;;;;6.78;2.80;;;16.10;99.90;;;;;;7370207;19;20029;-59
2024/04/07 00:19:09;;;;;;;5.97;2.28;;;16.00;99.90;;;;;;7369684;19;20755;-59
2024/04/07 00:21:35;;;;;;;5.72;2.67;;;16.00;99.90;;;;;;7376589;19;20019;-59
2024/04/07 00:24:01;;;;;;;10.18;2.90;;;16.00;99.90;;;;;;7376619;19;20039;-63
2024/04/07 00:26:27;;;;;;;6.90;2.15;;;16.00;99.90;;;;;;7378633;19;20035;-63
2024/04/07 00:28:53;;;;;;;4.93;2.25;;;15.90;99.90;;;;;;7374026;19;20026;-63
2024/04/07 00:31:19;;;;;;;6.80;2.58;;;16.00;99.90;;;;;;7373166;19;20020;-63
2024/04/07 00:33:46;;;;;;;5.75;2.38;;;15.90;99.90;;;;;;7370036;19;20023;-63
2024/04/07 00:36:12;;;;;;;5.93;2.60;;;15.90;99.90;;;;;;7371995;19;21346;-63
2024/04/07 00:38:38;;;;;;;9.85;3.03;;;15.90;99.90;;;;;;7371341;19;20388;-63
2024/04/07 00:41:06;;;;;;;5.90;2.45;;;15.90;99.90;;;;;;7372882;19;20010;-64
2024/04/07 00:43:32;;;;;;;7.00;3.00;;;15.90;99.90;;;;;;7379554;19;20021;-64
2024/04/07 00:45:58;;;;;;;9.35;2.67;;;16.00;99.90;;;;;;7376842;19;20099;-63
2024/04/07 00:48:25;;;;;;;8.00;2.90;;;16.00;99.90;;;;;;7373917;19;20010;-62
2024/04/07 00:50:54;;;;;;;8.43;2.83;;;16.00;99.90;;;;;;7377347;19;20024;-59
2024/04/07 00:53:20;;;;;;;8.00;2.70;;;16.00;99.90;;;;;;7377160;19;20644;-62
2024/04/07 00:55:47;;;;;;;7.68;2.60;;;16.10;99.90;;;;;;7377133;19;20022;-63
2024/04/07 00:58:18;;;;;;;11.48;2.80;;;16.20;72.50;;;;;;7370327;19;20034;-63
2024/04/07 01:00:45;;;;;;;8.13;2.70;;;16.20;31.90;;;;;;7377355;19;20022;-63
2024/04/07 01:03:14;;;;;;;8.70;2.85;;;16.20;43.40;;;;;;7375316;19;20090;-63
2024/04/07 01:05:49;;;;;;;6.57;2.50;;;16.20;52.20;;;;;;7373902;19;20023;-59
2024/04/07 01:08:17;;;;;;;6.82;2.50;;;16.20;65.80;;;;;;7370723;19;20018;-62
2024/04/07 01:10:49;;;;;;;10.90;3.03;;;16.20;11.80;;;;;;7376796;19;20024;-63
2024/04/07 01:13:16;;;;;;;9.13;2.92;;;16.20;17.80;;;;;;7378038;19;20019;-63
2024/04/07 01:15:42;;;;;;;9.85;2.85;;;16.20;8.90;;;;;;7367587;19;20041;-58
2024/04/07 01:18:09;;;;;;;5.55;2.80;;;16.20;6.50;;;;;;7374878;19;20014;-58
2024/04/07 01:20:36;;;;;;;7.40;3.13;;;16.30;1.00;;;;;;7369387;19;20086;-62
2024/04/07 01:23:02;;;;;;;7.55;3.10;;;16.40;1.00;;;;;;7374719;19;20053;-58
2024/04/07 01:25:29;;;;;;;9.07;2.75;;;16.40;1.00;;;;;;7377010;19;20647;-58
2024/04/07 01:28:01;;;;;;;5.45;2.53;;;16.50;1.00;;;;;;7373483;19;20029;-59
2024/04/07 01:30:28;;;;;;;8.30;2.45;;;16.70;99.90;;;;;;7375485;19;20010;-63
2024/04/07 01:32:55;;;;;;;7.70;2.30;;;16.80;99.90;;;;;;7375973;19;20082;-59
2024/04/07 01:35:21;;;;;;;4.60;1.75;;;16.90;99.90;;;;;;7374735;19;20114;-59
2024/04/07 01:37:47;;;;;;;6.90;1.58;;;17.00;99.90;;;;;;7366351;19;20014;-60
2024/04/07 01:40:13;;;;;;;8.18;2.20;;;17.10;99.90;;;;;;7375080;19;20014;-60
2024/04/07 01:42:41;;;;;;;10.35;2.63;;;17.20;99.90;;;;;;7370660;19;20015;-59
2024/04/07 01:45:09;;;;;;;7.25;2.33;;;17.20;99.90;;;;;;7370620;19;20026;-59
2024/04/07 01:47:39;;;;;;;7.90;2.20;;;17.20;99.90;;;;;;7373623;19;20493;-60
2024/04/07 01:50:07;;;;;;;6.30;2.10;;;17.20;99.90;;;;;;7371366;19;20019;-60
2024/04/07 01:52:33;;;;;;;6.45;1.95;;;17.20;99.90;;;;;;7370638;19;20019;-60
2024/04/07 01:54:59;;;;;;;5.38;1.95;;;17.10;99.90;;;;;;7366899;19;20015;-59
2024/04/07 01:57:26;;;;;;;8.02;1.85;;;17.10;1.00;;;;;;7373582;19;20022;-58
2024/04/07 01:59:52;;;;;;;5.78;1.92;;;17.00;1.00;;;;;;7369771;19;20934;-63
2024/04/07 02:02:19;;;;;;;6.50;1.80;;;16.90;1.00;;;;;;7375173;19;20018;-58
2024/04/07 02:04:46;;;;;;;7.57;2.25;;;16.80;1.00;;;;;;7377051;19;20078;-62
2024/04/07 02:07:13;;;;;;;7.75;2.63;;;16.80;18.10;;;;;;7371396;19;20025;-60
2024/04/07 02:09:39;;;;;;;7.18;2.13;;;16.70;70.10;;;;;;7377579;19;20469;-59
2024/04/07 02:12:05;;;;;;;6.45;2.20;;;16.50;99.90;;;;;;7375729;19;20558;-59
2024/04/07 02:14:32;;;;;;;7.60;2.35;;;16.40;99.90;;;;;;7377383;19;20454;-59
2024/04/07 02:16:59;;;;;;;6.38;1.90;;;16.30;99.90;;;;;;7381075;19;20487;-63
2024/04/07 02:19:25;;;;;;;7.63;2.40;;;16.20;99.90;;;;;;7385173;19;20018;-59
2024/04/07 02:21:51;;;;;;;6.45;2.13;;;16.10;99.90;;;;;;7374957;19;20019;-63
2024/04/07 02:24:17;;;;;;;8.30;2.08;;;16.00;99.90;;;;;;7380480;19;20859;-63
2024/04/07 02:26:46;;;;;;;4.18;1.70;;;16.00;99.90;;;;;;7385604;19;20022;-63
2024/04/07 02:29:14;;;;;;;7.95;2.20;;;15.90;99.90;;;;;;7374533;19;20756;-60
2024/04/07 02:31:40;;;;;;;6.55;1.92;;;15.90;99.90;;;;;;7382107;19;20018;-63
2024/04/07 02:34:08;;;;;;;5.80;1.80;;;15.80;99.90;;;;;;7375956;19;20584;-63
2024/04/07 02:36:34;;;;;;;8.73;2.17;;;15.80;99.90;;;;;;7379944;19;20375;-63
2024/04/07 02:39:00;;;;;;;9.65;2.10;;;15.70;99.90;;;;;;7378456;19;20914;-60
2024/04/07 02:41:27;;;;;;;7.07;1.98;;;15.70;1.00;;;;;;7383385;19;20022;-59
2024/04/07 02:43:54;;;;;;;9.85;2.00;;;15.70;1.00;;;;;;7378519;19;20078;-59
2024/04/07 02:49:05;;;;;;;10.07;2.03;;;15.60;1.00;;;;;;7370822;19;20045;-63
2024/04/07 02:51:32;;;;;;;7.82;2.47;;;15.60;1.00;;;;;;7378495;19;20574;-63
2024/04/07 02:53:58;;;;;;;9.80;2.53;;;15.50;1.00;;;;;;7375903;19;20018;-60
2024/04/07 02:56:24;;;;;;;7.75;1.83;;;15.50;1.00;;;;;;7379820;19;20025;-63
2024/04/07 02:58:51;;;;;;;6.65;2.10;;;15.40;1.00;;;;;;7379784;19;20498;-59
2024/04/07 03:01:17;;;;;;;6.75;2.15;;;15.40;1.00;;;;;;7377434;19;20026;-63
2024/04/07 03:03:45;;;;;;;9.63;2.00;;;15.30;1.00;;;;;;7380551;19;20382;-59
2024/04/07 03:06:13;;;;;;;8.15;2.00;;;15.30;1.00;;;;;;7379190;19;20026;-63
2024/04/07 03:08:39;;;;;;;6.28;1.80;;;15.30;1.00;;;;;;7381939;19;20105;-63
2024/04/07 03:11:07;;;;;;;11.52;3.88;;;15.30;1.00;;;;;;7376940;19;21060;-59
2024/04/07 03:13:34;;;;;;;6.50;1.63;;;15.20;1.00;;;;;;7380161;19;20039;-59
2024/04/07 03:16:01;;;;;;;7.20;1.95;;;15.30;1.00;;;;;;7371715;19;20044;-59
2024/04/07 03:18:27;;;;;;;7.00;2.25;;;15.10;1.00;;;;;;7381437;19;20026;-63
2024/04/07 03:20:56;;;;;;;8.15;2.08;;;15.20;1.00;;;;;;7373339;19;20098;-59
2024/04/07 03:23:22;;;;;;;6.78;1.63;;;15.20;1.00;;;;;;7381480;19;20023;-59
2024/04/07 03:25:48;;;;;;;5.70;1.77;;;15.20;1.00;;;;;;7376324;19;20030;-59
2024/04/07 03:28:17;;;;;;;6.88;1.85;;;15.10;1.00;;;;;;7376444;19;20875;-59
2024/04/07 03:30:44;;;;;;;6.25;1.65;;;15.20;1.00;;;;;;7373552;19;20018;-59
2024/04/07 03:33:10;;;;;;;4.30;1.55;;;15.20;1.00;;;;;;7374818;19;20401;-59
2024/04/07 03:35:36;;;;;;;3.70;1.27;;;15.10;1.00;;;;;;7371872;19;20690;-59
2024/04/07 03:38:02;;;;;;;4.30;1.60;;;15.20;1.00;;;;;;7372386;19;20015;-63
2024/04/07 03:40:29;;;;;;;5.60;1.90;;;15.10;1.00;;;;;;7376993;19;20019;-60
2024/04/07 03:42:55;;;;;;;4.65;1.60;;;15.10;1.00;;;;;;7370974;19;20022;-60
2024/04/07 03:45:22;;;;;;;5.60;1.60;;;15.10;1.00;;;;;;7375924;19;20175;-60
2024/04/07 03:47:48;;;;;;;3.53;1.10;;;15.10;1.00;;;;;;7374467;19;20744;-63
2024/04/07 03:50:18;;;;;;;8.90;1.83;;;15.10;1.00;;;;;;7383987;19;20037;-64
2024/04/07 03:52:46;;;;;;;6.38;1.60;;;15.10;1.00;;;;;;7374772;19;20018;-64
2024/04/07 03:55:15;;;;;;;4.93;1.52;;;15.00;1.00;;;;;;7375252;19;20483;-63
2024/04/07 03:57:41;;;;;;;5.82;1.73;;;14.90;1.00;;;;;;7373035;19;20699;-64
2024/04/07 04:00:11;;;;;;;4.75;1.70;;;14.80;1.00;;;;;;7378510;19;20022;-60
2024/04/07 04:02:42;;;;;;;4.45;1.38;;;14.80;1.00;;;;;;7375986;19;20015;-60
2024/04/07 04:05:08;;;;;;;7.35;1.67;;;14.90;1.00;;;;;;7369660;19;20019;-59
2024/04/07 04:07:35;;;;;;;4.53;1.50;;;15.00;1.00;;;;;;7370236;19;20482;-59
2024/04/07 04:10:01;;;;;;;5.20;1.70;;;14.90;1.00;;;;;;7372474;19;20029;-59
2024/04/07 04:12:28;;;;;;;6.60;1.70;;;14.90;1.00;;;;;;7377156;19;20880;-60
2024/04/07 04:14:56;;;;;;;6.32;1.80;;;14.90;1.00;;;;;;7371956;19;20018;-59
2024/04/07 04:17:23;;;;;;;6.15;1.70;;;14.80;1.00;;;;;;7372855;19;20030;-63
2024/04/07 04:19:50;;;;;;;4.65;1.85;;;14.80;1.00;;;;;;7382147;19;20073;-64
2024/04/07 04:22:17;;;;;;;6.10;1.63;;;14.80;1.00;;;;;;7379843;19;20091;-63
2024/04/07 04:24:43;;;;;;;4.55;1.48;;;14.70;17.10;;;;;;7380591;19;20011;-60
2024/04/07 04:27:10;;;;;;;3.85;1.13;;;14.70;15.00;;;;;;7370829;19;20014;-63
2024/04/07 04:29:36;;;;;;;7.78;1.83;;;14.70;12.10;;;;;;7381798;19;20022;-59
2024/04/07 04:32:04;;;;;;;6.25;2.00;;;14.70;1.00;;;;;;7372622;19;20478;-59
2024/04/07 04:34:34;;;;;;;5.25;1.42;;;14.70;1.00;;;;;;7374973;19;20019;-59
2024/04/07 04:37:04;;;;;;;5.35;1.40;;;14.70;12.60;;;;;;7377239;19;20019;-59
2024/04/07 04:39:30;;;;;;;3.60;1.27;;;14.70;1.00;;;;;;7371838;19;20037;-59
2024/04/07 04:41:56;;;;;;;3.63;1.25;;;14.70;1.00;;;;;;7377381;19;20094;-59
2024/04/07 04:44:22;;;;;;;5.97;1.75;;;14.70;1.00;;;;;;7372685;19;20074;-59
2024/04/07 04:46:50;;;;;;;5.25;1.10;;;14.80;1.00;;;;;;7377238;19;20421;-58
2024/04/07 04:49:17;;;;;;;5.63;1.10;;;14.80;1.00;;;;;;7372130;19;20018;-59
2024/04/07 04:51:44;;;;;;;5.45;1.05;;;14.90;1.00;;;;;;7373576;19;20085;-59
2024/04/07 04:54:12;;;;;;;2.35;0.70;;;14.90;1.00;;;;;;7372514;19;20304;-58
2024/04/07 04:56:41;;;;;;;4.07;1.00;;;14.90;1.00;;;;;;7375291;19;20045;-59
2024/04/07 04:59:07;;;;;;;5.03;1.05;;;14.90;1.00;;;;;;7377305;19;20573;-59
2024/04/07 05:01:36;;;;;;;3.10;1.00;;;14.80;1.00;;;;;;7371922;19;20041;-63
2024/04/07 05:04:03;;;;;;;2.65;0.73;;;14.70;1.00;;;;;;7371776;19;20485;-58
2024/04/07 05:06:29;;;;;;;4.35;1.00;;;14.60;1.00;;;;;;7374254;19;20015;-58
2024/04/07 05:08:55;;;;;;;3.55;0.82;;;14.60;1.00;;;;;;7367817;19;20503;-62
2024/04/07 05:11:21;;;;;;;3.70;0.85;;;14.50;1.00;;;;;;7381763;19;20015;-58
2024/04/07 05:13:47;;;;;;;2.13;0.98;;;14.50;1.00;;;;;;7369293;19;20022;-58
2024/04/07 05:16:14;;;;;;;3.10;0.77;;;14.50;1.00;;;;;;7377115;19;20085;-62
2024/04/07 05:18:41;;;;;;;3.78;0.73;;;14.40;1.00;;;;;;7378039;19;20852;-62
2024/04/07 05:21:09;;;;;;;2.10;0.77;;;14.50;1.00;;;;;;7379693;19;20022;-62
2024/04/07 05:23:37;;;;;;;2.35;0.90;;;14.50;1.00;;;;;;7371441;19;20472;-64
2024/04/07 05:26:17;;;;;;;1.77;0.70;;;14.60;99.90;;;;;;7381087;19;20035;-63
2024/04/07 05:28:44;;;;;;;3.10;0.73;;;14.70;1.00;;;;;;7376016;19;20019;-63
2024/04/07 05:31:12;;;;;;;1.65;0.70;;;14.60;1.00;;;;;;7376282;19;20039;-62
2024/04/07 05:33:39;;;;;;;3.75;0.82;;;14.70;1.00;;;;;;7378296;19;20761;-62
2024/04/07 05:36:06;;;;;;;3.10;0.70;;;14.70;99.90;;;;;;7371716;19;20049;-59
2024/04/07 05:38:34;;;;;;;3.92;0.80;;;14.70;99.90;;;;;;7374669;19;20015;-62
2024/04/07 05:41:04;;;;;;;1.67;0.50;;;14.80;99.90;;;;;;7374681;19;20019;-58
2024/04/07 05:43:33;;;;;;;1.65;0.50;;;14.80;99.90;;;;;;7373609;19;20023;-63
2024/04/07 05:46:09;;;;;;;1.98;0.60;;;14.80;99.90;;;;;;7375585;19;20014;-62
2024/04/07 05:48:39;;;;;;;2.28;1.25;;;14.80;99.90;;;;;;7373176;19;20014;-62
2024/04/07 05:51:13;;;;;;;4.60;0.80;;;14.90;99.90;;;;;;7373837;19;20267;-63
2024/04/07 05:53:39;;;;;;;1.60;0.57;;;14.90;99.90;;;;;;7370356;19;20025;-62
2024/04/07 05:56:10;;;;;;;1.95;0.65;;;15.00;99.90;;;;;;7377260;19;20030;-61
2024/04/07 05:58:38;;;;;;;2.50;1.00;;;15.00;99.90;;;;;;7377226;19;20019;-58
2024/04/07 06:01:04;;;;;;;2.53;0.60;;;15.10;99.90;;;;;;7377982;19;20021;-63
2024/04/07 06:03:31;;;;;;;2.47;0.55;;;15.10;99.90;;;;;;7376647;19;20082;-62
2024/04/07 06:05:57;;;;;;;1.00;0.60;;;15.20;99.90;;;;;;7382119;19;20025;-62
2024/04/07 06:08:23;;;;;;;2.08;0.60;;;15.20;99.90;;;;;;7378264;19;20553;-63
2024/04/07 06:10:49;;;;;;;3.13;0.75;;;15.30;99.90;;;;;;7380450;19;20023;-61
2024/04/07 06:13:18;;;;;;;15.70;12.52;;;15.30;99.90;;;;;;7374407;19;20014;-57
2024/04/07 06:15:44;;;;;;;8.32;5.93;;;15.30;99.90;;;;;;7375040;19;20022;-58
2024/04/07 06:18:11;;;;;;;2.05;0.57;;;15.40;99.90;;;;;;7375083;19;20053;-58
2024/04/07 06:20:37;;;;;;;2.63;0.70;;;15.40;99.90;;;;;;7376940;19;21674;-58
2024/04/07 06:23:04;;;;;;;1.73;0.68;;;15.40;99.90;;;;;;7372630;19;20029;-58
2024/04/07 06:25:30;;;;;;;2.92;0.82;;;15.40;99.90;;;;;;7376742;19;20033;-58
2024/04/07 06:27:57;;;;;;;2.35;0.77;;;15.40;99.90;;;;;;7376840;19;20053;-62
2024/04/07 06:30:23;;;;;;;2.00;0.93;;;15.40;99.90;;;;;;7380322;19;20026;-58
2024/04/07 06:32:49;;;;;;;5.85;1.02;;;15.50;99.90;;;;;;7381513;19;20018;-61
2024/04/07 06:35:15;;;;;;;3.38;0.80;;;15.50;99.90;;;;;;7374694;19;20027;-63
2024/04/07 06:37:42;;;;;;;2.53;0.70;;;15.50;99.90;;;;;;7373376;19;20662;-58
2024/04/07 06:40:08;;;;;;;7.72;0.93;;;15.50;99.90;;;;;;7368332;19;20041;-58
2024/04/07 06:42:34;;;;;;;3.05;0.60;;;15.50;99.90;;;;;;7375295;19;20497;-58
2024/04/07 06:45:01;;;;;;;2.72;0.80;;;15.60;99.90;;;;;;7372729;19;20032;-58
2024/04/07 06:47:28;;;;;;;1.67;0.70;;;15.60;1.00;;;;;;7377357;19;20025;-63
2024/04/07 06:49:57;;;;;;;5.20;0.88;;;15.60;94.00;;;;;;7375246;19;20133;-62
2024/04/07 06:52:24;;;;;;;3.45;0.68;;;15.50;79.40;;;;;;7377839;19;20018;-59
2024/04/07 06:54:51;;;;;;;3.53;0.80;;;15.50;90.50;;;;;;7371421;19;20022;-58
2024/04/07 06:57:19;;;;;;;2.90;0.70;;;15.40;99.90;;;;;;7382872;19;20018;-62
2024/04/07 06:59:46;;;;;;;1.42;0.65;;;15.40;99.90;;;;;;7386015;19;20015;-62
2024/04/07 07:02:13;;;;;;;3.35;0.85;;;15.70;99.90;;;;;;7386835;19;20038;-63
2024/04/07 07:04:39;;;;;;;3.10;0.70;;;16.00;99.90;;;;;;7383895;19;20018;-62
2024/04/07 07:07:05;;;;;;;3.75;0.63;;;16.30;21.60;;;;;;7384363;19;20502;-63
2024/04/07 07:09:32;;;;;;;3.55;0.57;;;16.50;43.90;;;;;;7388036;19;20018;-62
2024/04/07 07:11:58;;;;;;;2.92;0.65;;;16.80;1.00;;;;;;7383270;19;20062;-58
2024/04/07 07:14:25;;;;;;;5.80;0.98;;;17.00;1.00;;;;;;7381062;19;20029;-58
2024/04/07 07:16:51;;;;;;;2.42;0.80;;;17.20;1.00;;;;;;7379859;19;20018;-58
2024/04/07 07:19:21;;;;;;;1.25;0.63;;;17.30;99.90;;;;;;7384746;19;20751;-58
2024/04/07 07:21:51;;;;;;;3.78;0.77;;;17.40;99.90;;;;;;7383132;19;20041;-58
2024/04/07 07:24:17;;;;;;;2.67;0.70;;;17.50;99.90;;;;;;7381463;19;20026;-61
2024/04/07 07:26:43;;;;;;;4.75;1.10;;;17.60;99.90;;;;;;7379868;19;20019;-58
2024/04/07 07:29:12;;;;;;;2.30;0.70;;;17.80;99.90;;;;;;7380769;19;20022;-59
2024/04/07 07:31:38;;;;;;;4.90;1.00;;;17.80;99.90;;;;;;7380552;19;20022;-58
2024/04/07 07:34:05;;;;;;;3.55;0.88;;;18.00;99.90;;;;;;7380109;19;20018;-58
2024/04/07 07:36:31;;;;;;;3.38;0.88;;;18.30;99.90;;;;;;7378177;19;20082;-58
2024/04/07 07:38:58;;;;;;;2.20;0.68;;;18.10;99.90;;;;;;7380806;19;20021;-58
2024/04/07 07:41:25;;;;;;;4.82;0.90;;;18.20;99.90;;;;;;7380535;19;20045;-58
2024/04/07 07:43:51;;;;;;;3.75;0.75;;;18.40;99.90;;;;;;7383129;19;20073;-62
2024/04/07 07:46:17;;;;;;;3.35;0.80;;;18.10;60.00;;;;;;7385293;19;20471;-64
2024/04/07 07:48:43;;;;;;;2.90;0.88;;;18.40;99.90;;;;;;7385739;19;20106;-59
2024/04/07 07:51:11;;;;;;;4.53;0.85;;;18.40;67.40;;;;;;7380318;19;20434;-64
2024/04/07 07:53:38;;;;;;;4.03;0.90;;;18.60;90.00;;;;;;7382190;19;20022;-59
2024/04/07 07:56:06;;;;;;;5.28;1.00;;;18.80;71.50;;;;;;7376370;19;20037;-60
2024/04/07 07:58:34;;;;;;;2.50;0.85;;;19.00;99.90;;;;;;7382349;19;20771;-64
2024/04/07 08:01:00;;;;;;;3.55;0.77;;;19.40;29.40;;;;;;7380296;19;20098;-59
2024/04/07 08:03:27;;;;;;;4.03;0.90;;;19.10;59.40;;;;;;7379138;19;20018;-60
2024/04/07 08:05:53;;;;;;;4.43;0.80;;;19.10;99.90;;;;;;7376743;19;20014;-60
2024/04/07 08:08:20;;;;;;;3.55;0.93;;;19.10;16.20;;;;;;7379095;19;20021;-59
2024/04/07 08:10:47;;;;;;;2.33;0.85;;;19.30;64.50;;;;;;7378196;19;20014;-63
2024/04/07 08:13:14;;;;;;;3.03;0.70;;;19.20;54.20;;;;;;7386284;19;20023;-62
2024/04/07 08:15:41;;;;;;;2.25;0.80;;;19.10;31.40;;;;;;7380750;19;20602;-64
2024/04/07 08:18:08;;;;;;;3.60;0.82;;;19.20;1.00;;;;;;7380314;19;20050;-62
2024/04/07 08:20:35;;;;;;;2.85;0.70;;;19.30;1.00;;;;;;7374015;19;20014;-60
2024/04/07 08:23:02;;;;;;;4.15;1.02;;;19.20;1.00;;;;;;7378649;19;20052;-61
2024/04/07 08:25:28;;;;;;;4.45;0.85;;;19.30;1.00;;;;;;7375974;19;20017;-59
2024/04/07 08:27:54;;;;;;;2.53;1.05;;;19.20;1.00;;;;;;7377127;19;20505;-61
2024/04/07 08:30:20;;;;;;;3.40;1.05;;;19.30;1.00;;;;;;7376573;19;20015;-58
2024/04/07 08:32:47;;;;;;;3.20;0.70;;;19.40;1.00;;;;;;7377118;19;20018;-59
2024/04/07 08:35:13;;;;;;;2.72;0.80;;;19.00;1.00;;;;;;7371629;19;20014;-58
2024/04/07 08:37:40;;;;;;;2.75;0.60;;;18.70;1.00;;;;;;7375825;19;20019;-60
2024/04/07 08:40:09;;;;;;;3.85;1.05;;;18.50;9.70;;;;;;7375625;19;20045;-58
2024/04/07 08:42:40;;;;;;;2.55;0.90;;;18.90;29.00;;;;;;7378477;19;20596;-59
2024/04/07 08:45:08;;;;;;;2.90;0.97;;;19.30;1.00;;;;;;7380224;19;20018;-58
2024/04/07 08:47:38;;;;;;;3.60;1.00;;;19.20;1.00;;;;;;7374497;19;20721;-60
2024/04/07 08:50:14;;;;;;;3.58;0.95;;;19.20;1.00;;;;;;7375423;19;20053;-61
2024/04/07 08:52:44;;;;;;;3.92;0.77;;;19.60;1.00;;;;;;7375535;19;20014;-58
2024/04/07 08:55:11;;;;;;;2.83;1.02;;;20.00;1.00;;;;;;7375112;19;20018;-58
2024/04/07 08:57:39;;;;;;;5.78;0.98;;;20.30;1.00;;;;;;7376104;19;20538;-58
2024/04/07 09:00:08;;;;;;;3.95;0.80;;;20.30;1.00;;;;;;7375081;19;20041;-58
2024/04/07 09:02:36;;;;;;;3.25;0.95;;;20.60;1.00;;;;;;7375818;19;20078;-58
2024/04/07 09:05:06;;;;;;;3.28;1.17;;;21.00;1.00;;;;;;7376874;19;20896;-58
2024/04/07 09:07:33;;;;;;;3.60;0.87;;;21.20;1.00;;;;;;7376934;19;20459;-61
2024/04/07 09:09:59;;;;;;;6.32;1.35;;;21.40;99.90;;;;;;7379477;19;20034;-62
2024/04/07 09:12:26;;;;;;;2.60;0.63;;;21.40;99.90;;;;;;7377667;19;20015;-62
2024/04/07 09:14:52;;;;;;;4.07;0.82;;;21.00;99.90;;;;;;7378248;19;20022;-62
2024/04/07 09:17:18;;;;;;;4.97;1.38;;;20.80;99.90;;;;;;7377136;19;20077;-62
2024/04/07 09:19:45;;;;;;;2.78;0.70;;;20.20;1.00;;;;;;7377935;19;20014;-62
2024/04/07 09:22:14;;;;;;;3.13;0.80;;;19.70;1.00;;;;;;7378996;19;20037;-63
2024/04/07 09:24:41;;;;;;;3.25;1.00;;;20.40;1.00;;;;;;7381643;19;20072;-59
2024/04/07 09:27:13;;;;;;;3.88;1.10;;;21.10;1.00;;;;;;7377291;19;20023;-62
2024/04/07 09:29:41;;;;;;;5.75;0.93;;;21.80;1.00;;;;;;7380490;19;20099;-63
2024/04/07 09:32:08;;;;;;;2.20;0.65;;;22.20;99.90;;;;;;7378293;19;20790;-62
2024/04/07 09:34:37;;;;;;;3.47;1.00;;;22.50;99.90;;;;;;7377091;19;20026;-63
2024/04/07 09:37:04;;;;;;;3.35;0.82;;;22.70;99.90;;;;;;7376253;19;20026;-63
2024/04/07 09:39:31;;;;;;;2.03;0.88;;;22.50;99.90;;;;;;7378332;19;20014;-62
2024/04/07 09:42:02;;;;;;;4.25;1.08;;;21.50;99.90;;;;;;7380880;19;20121;-62
2024/04/07 09:44:36;;;;;;;4.63;0.98;;;21.20;99.90;;;;;;7379668;19;20053;-61
2024/04/07 09:47:08;;;;;;;1.23;0.52;;;21.00;99.90;;;;;;7374952;19;20021;-59
2024/04/07 09:49:39;;;;;;;4.32;0.82;;;21.30;99.90;;;;;;7375935;19;20631;-59
2024/04/07 09:52:07;;;;;;;4.33;1.40;;;21.00;99.90;;;;;;7376911;19;20025;-59
2024/04/07 09:54:42;;;;;;;3.30;1.00;;;20.30;99.90;;;;;;7376961;19;20014;-63
2024/04/07 09:57:10;;;;;;;3.72;1.00;;;19.50;99.90;;;;;;7378542;19;20025;-62
2024/04/07 09:59:40;;;;;;;2.72;0.60;;;19.70;99.90;;;;;;7379822;19;20011;-62
2024/04/07 10:02:07;;;;;;;2.92;0.80;;;19.60;99.90;;;;;;7377329;19;20022;-59
2024/04/07 10:04:34;;;;;;;4.80;0.90;;;19.50;99.90;;;;;;7374491;19;20015;-58
2024/04/07 10:07:02;;;;;;;1.83;0.82;;;19.50;1.00;;;;;;7376792;19;20037;-62
2024/04/07 10:09:29;;;;;;;1.92;0.75;;;19.60;99.90;;;;;;7379427;19;20022;-62
2024/04/07 10:11:56;;;;;;;4.47;0.85;;;20.30;99.90;;;;;;7376508;19;20041;-59
2024/04/07 10:14:22;;;;;;;2.40;0.60;;;20.80;99.90;;;;;;7375404;19;20733;-63
2024/04/07 10:16:51;;;;;;;4.97;1.05;;;21.20;99.90;;;;;;7374105;19;20023;-62
2024/04/07 10:19:20;;;;;;;2.90;0.80;;;20.50;99.90;;;;;;7370034;19;20025;-62
2024/04/07 10:21:48;;;;;;;3.22;0.75;;;20.20;99.90;;;;;;7374269;19;20026;-62
2024/04/07 10:24:16;;;;;;;1.35;0.55;;;20.40;99.90;;;;;;7375706;19;20014;-59
2024/04/07 10:26:52;;;;;;;4.57;0.95;;;20.30;99.90;;;;;;7373523;19;20018;-61
2024/04/07 10:29:18;;;;;;;2.65;0.73;;;20.00;99.90;;;;;;7375297;19;20022;-61
2024/04/07 10:31:45;;;;;;;2.90;0.90;;;19.60;99.90;;;;;;7383187;19;20355;-61
2024/04/07 10:34:13;;;;;;;2.70;0.88;;;19.80;99.90;;;;;;7383126;19;20014;-61
2024/04/07 10:36:40;;;;;;;2.58;0.60;;;20.40;99.90;;;;;;7383820;19;20863;-61
2024/04/07 10:39:10;;;;;;;3.78;0.90;;;20.60;99.90;;;;;;7380168;19;20026;-61
2024/04/07 10:41:37;;;;;;;2.90;0.80;;;20.60;99.90;;;;;;7383036;19;20069;-61
2024/04/07 10:44:04;;;;;;;2.75;0.93;;;20.20;99.90;;;;;;7384978;19;20022;-61
2024/04/07 10:46:32;;;;;;;3.65;0.70;;;19.70;99.90;;;;;;7380103;19;20025;-61
2024/04/07 10:48:59;;;;;;;2.55;0.90;;;19.80;99.90;;;;;;7382749;19;20094;-59
2024/04/07 10:51:26;;;;;;;3.28;0.80;;;20.70;99.90;;;;;;7377836;19;20380;-59
2024/04/07 10:54:00;;;;;;;1.52;0.70;;;21.60;99.90;;;;;;7383678;19;20033;-62
2024/04/07 10:56:28;;;;;;;3.47;0.80;;;22.40;99.90;;;;;;7380229;19;20031;-61
2024/04/07 10:58:56;;;;;;;4.25;0.90;;;23.30;99.90;;;;;;7381569;19;20037;-59
2024/04/07 11:01:23;;;;;;;3.40;0.93;;;23.40;99.90;;;;;;7377300;19;20019;-59
2024/04/07 11:03:49;;;;;;;3.28;0.70;;;23.20;99.90;;;;;;7380265;19;20026;-60
2024/04/07 11:06:16;;;;;;;1.70;0.80;;;23.60;99.90;;;;;;7380686;19;20022;-60
2024/04/07 11:08:42;;;;;;;4.07;0.93;;;23.40;99.90;;;;;;7379763;19;20031;-62
2024/04/07 11:11:10;;;;;;;2.50;0.70;;;23.30;99.90;;;;;;7383805;19;20037;-62
2024/04/07 11:13:36;;;;;;;3.70;1.00;;;23.40;99.90;;;;;;7386931;19;20018;-63
2024/04/07 11:16:03;;;;;;;4.93;1.23;;;23.50;99.90;;;;;;7384344;19;20146;-63
2024/04/07 11:18:31;;;;;;;2.05;0.63;;;23.20;99.90;;;;;;7385222;19;20971;-63
2024/04/07 11:20:59;;;;;;;3.15;0.95;;;23.70;99.90;;;;;;7382761;19;20478;-63
2024/04/07 11:23:26;;;;;;;3.20;0.80;;;23.80;99.90;;;;;;7383958;19;20041;-62
2024/04/07 11:25:55;;;;;;;2.42;0.77;;;24.10;99.90;;;;;;7383099;19;20093;-62
2024/04/07 11:28:22;;;;;;;4.80;0.90;;;24.40;99.90;;;;;;7382026;19;20896;-63
2024/04/07 11:30:50;;;;;;;2.35;0.75;;;24.50;99.90;;;;;;7383562;19;20394;-62
2024/04/07 11:33:17;;;;;;;4.30;0.77;;;24.70;99.90;;;;;;7381062;19;20094;-62
2024/04/07 11:35:44;;;;;;;3.15;0.70;;;25.40;99.90;;;;;;7376703;19;20030;-63
2024/04/07 11:38:14;;;;;;;3.38;0.88;;;26.10;99.90;;;;;;7375262;19;20110;-63
2024/04/07 11:40:41;;;;;;;2.08;0.70;;;25.10;99.90;;;;;;7379496;19;20019;-63
2024/04/07 11:43:09;;;;;;;2.60;0.77;;;24.50;99.90;;;;;;7377584;19;20534;-63
2024/04/07 11:45:37;;;;;;;3.80;0.60;;;24.00;99.90;;;;;;7380314;19;20811;-62
2024/04/07 11:48:05;;;;;;;5.45;0.93;;;23.30;99.90;;;;;;7381326;19;20078;-63
2024/04/07 11:50:31;;;;;;;3.83;0.70;;;23.40;99.90;;;;;;7375479;19;20506;-59
2024/04/07 11:52:57;;;;;;;2.63;0.77;;;23.30;99.90;;;;;;7376898;19;20031;-57
2024/04/07 11:55:24;;;;;;;4.30;0.63;;;23.90;99.90;;;;;;7376444;19;20044;-62
2024/04/07 11:57:51;;;;;;;2.75;0.70;;;24.60;99.90;;;;;;7376782;19;20125;-59
2024/04/07 12:00:17;;;;;;;3.03;0.90;;;24.50;99.90;;;;;;7378771;19;20022;-62
2024/04/07 12:02:44;;;;;;;2.63;0.70;;;24.20;99.90;;;;;;7377106;19;20039;-61
2024/04/07 12:05:12;;;;;;;3.00;0.50;;;23.80;99.90;;;;;;7378488;19;20645;-58
2024/04/07 12:07:39;;;;;;;3.05;0.90;;;24.20;99.90;;;;;;7378144;19;20018;-58
2024/04/07 12:10:05;;;;;;;2.42;0.73;;;24.40;99.90;;;;;;7376455;19;20026;-58
2024/04/07 12:12:31;;;;;;;3.13;0.60;;;23.80;99.90;;;;;;7373327;19;20383;-58
2024/04/07 12:14:59;;;;;;;3.90;0.80;;;23.80;99.90;;;;;;7374651;19;20031;-58
2024/04/07 12:17:28;;;;;;;2.67;0.70;;;24.30;99.90;;;;;;7376646;19;20033;-58
2024/04/07 12:19:54;;;;;;;4.05;1.00;;;23.60;99.90;;;;;;7375260;19;20018;-59
2024/04/07 12:22:21;;;;;;;4.03;1.00;;;24.10;99.90;;;;;;7372839;19;20372;-59
2024/04/07 12:24:49;;;;;;;4.72;0.85;;;24.40;99.90;;;;;;7377143;19;20106;-59
2024/04/07 12:27:18;;;;;;;2.67;0.75;;;24.60;99.90;;;;;;7377065;19;20494;-59
2024/04/07 12:29:45;;;;;;;2.45;0.70;;;24.90;99.90;;;;;;7378390;19;20018;-59
2024/04/07 12:32:11;;;;;;;2.90;0.80;;;24.40;99.90;;;;;;7375995;19;20021;-59
2024/04/07 12:34:37;;;;;;;2.45;0.80;;;24.20;99.90;;;;;;7377150;19;20023;-59
2024/04/07 12:37:04;;;;;;;3.80;1.50;;;24.50;99.90;;;;;;7371994;19;20021;-60
2024/04/07 12:39:31;;;;;;;3.63;1.05;;;24.80;99.90;;;;;;7376456;19;20014;-61
2024/04/07 12:41:57;;;;;;;5.78;0.98;;;24.80;99.90;;;;;;7362364;19;20025;-61
2024/04/07 12:44:23;;;;;;;3.85;0.90;;;25.40;99.90;;;;;;7375305;19;20020;-61
2024/04/07 12:46:49;;;;;;;2.90;0.60;;;25.30;99.90;;;;;;7370094;19;20014;-61
2024/04/07 12:49:21;;;;;;;2.40;0.75;;;25.10;99.90;;;;;;7379704;19;20019;-61
2024/04/07 12:51:51;;;;;;;3.08;0.82;;;25.60;99.90;;;;;;7373937;19;20135;-62
2024/04/07 12:54:22;;;;;;;2.83;0.68;;;25.00;99.90;;;;;;7374940;19;20007;-62